sensor_id;sensor_type;location;lat;lon;timestamp;pressure;altitude;pressure_sealevel;temperature;humidity
43681;BME280;29281;50.356;30.894;2023-02-28T00:00:33;101330.02;;;0.29;69.80
43681;BME280;29281;50.356;30.894;2023-02-28T00:01:37;101336.27;;;0.09;70.68
43681;BME280;29281;50.356;30.894;2023-02-28T00:02:42;101333.57;;;0.18;70.47
43681;BME280;29281;50.356;30.894;2023-02-28T00:03:47;101336.89;;;0.40;70.19
43681;BME280;29281;50.356;30.894;2023-02-28T00:04:51;101342.09;;;0.44;69.88
43681;BME280;29281;50.356;30.894;2023-02-28T00:05:55;101346.39;;;0.48;69.42
43681;BME280;29281;50.356;30.894;2023-02-28T00:06:59;101352.34;;;0.65;68.77
43681;BME280;29281;50.356;30.894;2023-02-28T00:08:03;101359.19;;;0.79;68.19
43681;BME280;29281;50.356;30.894;2023-02-28T00:09:07;101362.73;;;0.75;67.95
43681;BME280;29281;50.356;30.894;2023-02-28T00:10:15;101359.16;;;0.82;68.01
43681;BME280;29281;50.356;30.894;2023-02-28T00:11:20;101365.36;;;0.73;68.04
43681;BME280;29281;50.356;30.894;2023-02-28T00:12:25;101360.01;;;0.85;67.49
43681;BME280;29281;50.356;30.894;2023-02-28T00:13:29;101363.56;;;0.77;67.57
43681;BME280;29281;50.356;30.894;2023-02-28T00:14:33;101360.94;;;0.78;68.00
43681;BME280;29281;50.356;30.894;2023-02-28T00:15:37;101358.31;;;0.80;67.46
43681;BME280;29281;50.356;30.894;2023-02-28T00:16:41;101357.41;;;0.84;67.87
43681;BME280;29281;50.356;30.894;2023-02-28T00:17:45;101359.41;;;0.56;67.91
43681;BME280;29281;50.356;30.894;2023-02-28T00:18:51;101355.93;;;0.55;68.09
43681;BME280;29281;50.356;30.894;2023-02-28T00:19:54;101357.58;;;0.64;68.03
43681;BME280;29281;50.356;30.894;2023-02-28T00:20:58;101356.53;;;0.83;68.39
43681;BME280;29281;50.356;30.894;2023-02-28T00:22:02;101363.61;;;0.75;67.56
43681;BME280;29281;50.356;30.894;2023-02-28T00:23:05;101354.09;;;0.63;67.97
43681;BME280;29281;50.356;30.894;2023-02-28T00:24:09;101347.92;;;0.74;67.91
43681;BME280;29281;50.356;30.894;2023-02-28T00:25:13;101351.31;;;0.83;67.90
43681;BME280;29281;50.356;30.894;2023-02-28T00:26:16;101347.84;;;0.80;67.65
43681;BME280;29281;50.356;30.894;2023-02-28T00:27:24;101359.91;;;0.94;67.46
43681;BME280;29281;50.356;30.894;2023-02-28T00:28:30;101359.82;;;1.05;67.03
43681;BME280;29281;50.356;30.894;2023-02-28T00:29:34;101359.97;;;0.91;66.97
43681;BME280;29281;50.356;30.894;2023-02-28T00:30:39;101355.80;;;0.69;67.65
43681;BME280;29281;50.356;30.894;2023-02-28T00:31:43;101366.16;;;0.78;67.79
43681;BME280;29281;50.356;30.894;2023-02-28T00:32:47;101362.00;;;0.59;68.56
43681;BME280;29281;50.356;30.894;2023-02-28T00:33:51;101359.32;;;0.65;68.33
43681;BME280;29281;50.356;30.894;2023-02-28T00:34:59;101372.23;;;0.83;68.07
43681;BME280;29281;50.356;30.894;2023-02-28T00:36:08;101358.13;;;0.98;67.92
43681;BME280;29281;50.356;30.894;2023-02-28T00:37:11;101359.02;;;0.97;67.70
43681;BME280;29281;50.356;30.894;2023-02-28T00:38:18;101359.98;;;0.90;67.76
43681;BME280;29281;50.356;30.894;2023-02-28T00:39:21;101350.27;;;1.01;67.68
43681;BME280;29281;50.356;30.894;2023-02-28T00:40:24;101355.53;;;0.96;67.55
43681;BME280;29281;50.356;30.894;2023-02-28T00:41:28;101353.74;;;1.01;67.86
43681;BME280;29281;50.356;30.894;2023-02-28T00:42:31;101350.33;;;0.93;67.57
43681;BME280;29281;50.356;30.894;2023-02-28T00:43:38;101360.05;;;0.79;67.14
43681;BME280;29281;50.356;30.894;2023-02-28T00:44:45;101350.44;;;0.83;67.29
43681;BME280;29281;50.356;30.894;2023-02-28T00:45:47;101352.16;;;0.87;67.28
43681;BME280;29281;50.356;30.894;2023-02-28T00:46:51;101355.70;;;0.78;66.94
43681;BME280;29281;50.356;30.894;2023-02-28T00:47:58;101357.66;;;0.58;67.47
43681;BME280;29281;50.356;30.894;2023-02-28T00:49:02;101352.55;;;0.44;68.18
43681;BME280;29281;50.356;30.894;2023-02-28T00:50:06;101348.22;;;0.40;68.33
43681;BME280;29281;50.356;30.894;2023-02-28T00:51:11;101347.23;;;0.53;68.38
43681;BME280;29281;50.356;30.894;2023-02-28T00:52:16;101353.05;;;0.84;67.49
43681;BME280;29281;50.356;30.894;2023-02-28T00:53:19;101345.94;;;0.97;67.04
43681;BME280;29281;50.356;30.894;2023-02-28T00:54:23;101355.56;;;0.92;67.35
43681;BME280;29281;50.356;30.894;2023-02-28T00:55:27;101351.32;;;0.82;67.54
43681;BME280;29281;50.356;30.894;2023-02-28T00:56:29;101351.34;;;0.79;68.20
43681;BME280;29281;50.356;30.894;2023-02-28T00:57:33;101350.44;;;0.83;67.28
43681;BME280;29281;50.356;30.894;2023-02-28T00:58:38;101341.81;;;0.76;67.45
43681;BME280;29281;50.356;30.894;2023-02-28T00:59:44;101344.34;;;0.82;67.05
43681;BME280;29281;50.356;30.894;2023-02-28T01:00:54;101343.55;;;0.76;67.26
43681;BME280;29281;50.356;30.894;2023-02-28T01:01:56;101346.09;;;0.82;66.86
43681;BME280;29281;50.356;30.894;2023-02-28T01:03:01;101346.10;;;0.80;66.68
43681;BME280;29281;50.356;30.894;2023-02-28T01:04:07;101345.34;;;0.69;67.31
43681;BME280;29281;50.356;30.894;2023-02-28T01:05:10;101342.02;;;0.50;67.91
43681;BME280;29281;50.356;30.894;2023-02-28T01:06:14;101347.92;;;0.74;67.71
43681;BME280;29281;50.356;30.894;2023-02-28T01:07:17;101337.45;;;0.75;67.64
43681;BME280;29281;50.356;30.894;2023-02-28T01:08:21;101352.16;;;0.87;67.42
43681;BME280;29281;50.356;30.894;2023-02-28T01:09:28;101347.06;;;0.73;67.58
43681;BME280;29281;50.356;30.894;2023-02-28T01:10:33;101344.59;;;0.58;68.08
43681;BME280;29281;50.356;30.894;2023-02-28T01:11:37;101349.70;;;0.68;68.00
43681;BME280;29281;50.356;30.894;2023-02-28T01:12:40;101354.91;;;0.73;67.46
43681;BME280;29281;50.356;30.894;2023-02-28T01:13:44;101357.38;;;0.87;67.77
43681;BME280;29281;50.356;30.894;2023-02-28T01:14:47;101354.77;;;0.87;67.36
43681;BME280;29281;50.356;30.894;2023-02-28T01:15:54;101357.38;;;0.87;67.90
43681;BME280;29281;50.356;30.894;2023-02-28T01:17:00;101358.44;;;0.66;67.57
43681;BME280;29281;50.356;30.894;2023-02-28T01:18:04;101360.95;;;0.77;67.66
43681;BME280;29281;50.356;30.894;2023-02-28T01:19:08;101362.66;;;0.81;67.58
43681;BME280;29281;50.356;30.894;2023-02-28T01:20:11;101365.38;;;0.70;67.85
43681;BME280;29281;50.356;30.894;2023-02-28T01:21:17;101367.00;;;0.83;67.72
43681;BME280;29281;50.356;30.894;2023-02-28T01:22:23;101371.30;;;0.90;67.18
43681;BME280;29281;50.356;30.894;2023-02-28T01:23:28;101372.98;;;0.94;66.91
43681;BME280;29281;50.356;30.894;2023-02-28T01:24:33;101362.73;;;0.76;67.61
43681;BME280;29281;50.356;30.894;2023-02-28T01:25:37;101366.16;;;0.78;67.97
43681;BME280;29281;50.356;30.894;2023-02-28T01:26:40;101369.02;;;0.52;67.86
43681;BME280;29281;50.356;30.894;2023-02-28T01:27:44;101366.38;;;0.55;68.54
43681;BME280;29281;50.356;30.894;2023-02-28T01:28:48;101368.78;;;0.78;68.11
43681;BME280;29281;50.356;30.894;2023-02-28T01:29:52;101366.08;;;0.89;68.28
43681;BME280;29281;50.356;30.894;2023-02-28T01:30:56;101376.28;;;1.13;67.68
43681;BME280;29281;50.356;30.894;2023-02-28T01:31:59;101373.53;;;1.25;66.87
43681;BME280;29281;50.356;30.894;2023-02-28T01:33:02;101378.77;;;1.24;66.75
43681;BME280;29281;50.356;30.894;2023-02-28T01:34:07;101378.16;;;1.02;66.12
43681;BME280;29281;50.356;30.894;2023-02-28T01:35:12;101372.36;;;0.69;67.24
43681;BME280;29281;50.356;30.894;2023-02-28T01:36:22;101369.84;;;0.60;67.31
43681;BME280;29281;50.356;30.894;2023-02-28T01:37:26;101373.12;;;0.81;67.09
43681;BME280;29281;50.356;30.894;2023-02-28T01:38:30;101370.57;;;0.76;66.39
43681;BME280;29281;50.356;30.894;2023-02-28T01:39:33;101375.11;;;0.53;66.89
43681;BME280;29281;50.356;30.894;2023-02-28T01:40:36;101378.45;;;0.72;66.69
43681;BME280;29281;50.356;30.894;2023-02-28T01:41:42;101376.82;;;0.58;66.59
43681;BME280;29281;50.356;30.894;2023-02-28T01:42:46;101371.48;;;0.70;67.60
43681;BME280;29281;50.356;30.894;2023-02-28T01:44:02;101368.79;;;0.77;66.74
43681;BME280;29281;50.356;30.894;2023-02-28T01:46:15;101371.65;;;0.49;66.69
43681;BME280;29281;50.356;30.894;2023-02-28T01:47:22;101370.63;;;0.67;66.49
43681;BME280;29281;50.356;30.894;2023-02-28T01:48:30;101375.87;;;0.64;66.11
43681;BME280;29281;50.356;30.894;2023-02-28T01:49:36;101367.95;;;0.76;66.03
43681;BME280;29281;50.356;30.894;2023-02-28T01:50:41;101375.61;;;0.93;65.36
43681;BME280;29281;50.356;30.894;2023-02-28T01:51:49;101376.57;;;0.86;65.23
43681;BME280;29281;50.356;30.894;2023-02-28T01:52:59;101375.54;;;1.02;65.06
43681;BME280;29281;50.356;30.894;2023-02-28T01:54:07;101384.97;;;1.18;65.05
43681;BME280;29281;50.356;30.894;2023-02-28T01:55:15;101382.56;;;0.95;65.25
43681;BME280;29281;50.356;30.894;2023-02-28T01:56:20;101371.78;;;0.32;66.76
43681;BME280;29281;50.356;30.894;2023-02-28T01:57:32;101373.47;;;0.41;66.66
43681;BME280;29281;50.356;30.894;2023-02-28T01:58:34;101374.23;;;0.55;66.60
43681;BME280;29281;50.356;30.894;2023-02-28T01:59:47;101369.91;;;0.48;67.03
43681;BME280;29281;50.356;30.894;2023-02-28T02:00:56;101369.00;;;0.55;67.00
43681;BME280;29281;50.356;30.894;2023-02-28T02:02:01;101375.85;;;0.68;66.62
43681;BME280;29281;50.356;30.894;2023-02-28T02:03:06;101374.96;;;0.71;66.66
43681;BME280;29281;50.356;30.894;2023-02-28T02:04:11;101378.44;;;0.73;65.84
43681;BME280;29281;50.356;30.894;2023-02-28T02:05:18;101379.30;;;0.74;65.92
43681;BME280;29281;50.356;30.894;2023-02-28T02:06:22;101382.71;;;0.80;65.47
43681;BME280;29281;50.356;30.894;2023-02-28T02:07:25;101383.60;;;0.78;65.89
43681;BME280;29281;50.356;30.894;2023-02-28T02:08:31;101379.31;;;0.72;66.20
43681;BME280;29281;50.356;30.894;2023-02-28T02:09:34;101376.69;;;0.74;66.32
43681;BME280;29281;50.356;30.894;2023-02-28T02:10:42;101378.45;;;0.70;66.73
43681;BME280;29281;50.356;30.894;2023-02-28T02:11:49;101373.25;;;0.65;66.91
43681;BME280;29281;50.356;30.894;2023-02-28T02:13:12;101376.73;;;0.67;67.20
43681;BME280;29281;50.356;30.894;2023-02-28T02:14:24;101378.49;;;0.64;66.66
43681;BME280;29281;50.356;30.894;2023-02-28T02:15:29;101372.40;;;0.63;66.27
43681;BME280;29281;50.356;30.894;2023-02-28T02:17:46;101384.58;;;0.66;66.39
43681;BME280;29281;50.356;30.894;2023-02-28T02:20:35;101379.51;;;0.46;67.30
43681;BME280;29281;50.356;30.894;2023-02-28T02:25:24;101374.88;;;0.79;66.68
43681;BME280;29281;50.356;30.894;2023-02-28T02:26:39;101385.42;;;0.71;66.49
43681;BME280;29281;50.356;30.894;2023-02-28T02:35:41;101390.77;;;0.57;66.83
43681;BME280;29281;50.356;30.894;2023-02-28T02:36:46;101389.23;;;0.30;67.32
43681;BME280;29281;50.356;30.894;2023-02-28T02:38:00;101392.69;;;0.31;67.87
43681;BME280;29281;50.356;30.894;2023-02-28T02:40:27;101394.56;;;0.15;67.65
43681;BME280;29281;50.356;30.894;2023-02-28T02:41:34;101394.47;;;0.29;67.21
43681;BME280;29281;50.356;30.894;2023-02-28T02:43:00;101399.72;;;0.23;66.77
43681;BME280;29281;50.356;30.894;2023-02-28T02:46:37;101397.95;;;0.29;67.16
43681;BME280;29281;50.356;30.894;2023-02-28T02:47:43;101400.50;;;0.35;67.45
43681;BME280;29281;50.356;30.894;2023-02-28T02:48:48;101402.34;;;0.21;67.81
43681;BME280;29281;50.356;30.894;2023-02-28T02:49:53;101393.61;;;0.27;68.48
43681;BME280;29281;50.356;30.894;2023-02-28T02:50:59;101404.83;;;0.41;68.01
43681;BME280;29281;50.356;30.894;2023-02-28T02:52:04;101404.08;;;0.24;68.71
43681;BME280;29281;50.356;30.894;2023-02-28T02:53:09;101394.56;;;0.15;68.70
43681;BME280;29281;50.356;30.894;2023-02-28T02:54:15;101404.06;;;0.25;68.57
43681;BME280;29281;50.356;30.894;2023-02-28T02:55:19;101410.86;;;0.48;68.00
43681;BME280;29281;50.356;30.894;2023-02-28T02:56:25;101409.95;;;0.53;67.82
43681;BME280;29281;50.356;30.894;2023-02-28T02:58:30;101415.18;;;0.55;67.51
43681;BME280;29281;50.356;30.894;2023-02-28T02:58:47;101411.81;;;0.39;67.87
43681;BME280;29281;50.356;30.894;2023-02-28T02:59:52;101408.42;;;0.25;67.65
43681;BME280;29281;50.356;30.894;2023-02-28T03:01:01;101413.81;;;-0.01;68.22
43681;BME280;29281;50.356;30.894;2023-02-28T03:02:06;101413.66;;;0.23;67.91
43681;BME280;29281;50.356;30.894;2023-02-28T03:03:10;101413.54;;;0.42;66.92
43681;BME280;29281;50.356;30.894;2023-02-28T03:04:19;101410.04;;;0.44;67.62
43681;BME280;29281;50.356;30.894;2023-02-28T03:05:25;101418.59;;;0.61;67.26
43681;BME280;29281;50.356;30.894;2023-02-28T03:06:30;101420.37;;;0.61;66.96
43681;BME280;29281;50.356;30.894;2023-02-28T03:07:33;101418.70;;;0.46;67.31
43681;BME280;29281;50.356;30.894;2023-02-28T03:08:37;101415.30;;;0.38;67.21
43681;BME280;29281;50.356;30.894;2023-02-28T03:09:49;101418.02;;;0.21;68.34
43681;BME280;29281;50.356;30.894;2023-02-28T03:10:57;101415.36;;;0.30;68.23
43681;BME280;29281;50.356;30.894;2023-02-28T03:11:55;101414.31;;;0.54;67.72
43681;BME280;29281;50.356;30.894;2023-02-28T03:15:30;101414.71;;;-0.11;70.11
43681;BME280;29281;50.356;30.894;2023-02-28T03:18:01;101418.80;;;0.34;68.86
43681;BME280;29281;50.356;30.894;2023-02-28T03:19:25;101425.94;;;0.06;69.17
43681;BME280;29281;50.356;30.894;2023-02-28T03:20:36;101421.73;;;-0.21;69.63
43681;BME280;29281;50.356;30.894;2023-02-28T03:23:23;101423.63;;;-0.62;71.86
43681;BME280;29281;50.356;30.894;2023-02-28T03:24:25;101428.77;;;-0.40;71.36
43681;BME280;29281;50.356;30.894;2023-02-28T03:25:31;101420.88;;;-0.30;70.91
43681;BME280;29281;50.356;30.894;2023-02-28T03:26:46;101433.16;;;-0.48;71.17
43681;BME280;29281;50.356;30.894;2023-02-28T03:30:02;101432.92;;;0.03;70.45
43681;BME280;29281;50.356;30.894;2023-02-28T03:31:17;101435.60;;;-0.13;70.16
43681;BME280;29281;50.356;30.894;2023-02-28T03:32:26;101436.41;;;0.02;70.16
43681;BME280;29281;50.356;30.894;2023-02-28T03:33:32;101442.57;;;-0.15;70.06
43681;BME280;29281;50.356;30.894;2023-02-28T03:34:38;101442.69;;;-0.44;70.87
43681;BME280;29281;50.356;30.894;2023-02-28T03:35:45;101439.08;;;-0.11;70.32
43681;BME280;29281;50.356;30.894;2023-02-28T03:36:48;101439.12;;;-0.17;69.89
43681;BME280;29281;50.356;30.894;2023-02-28T03:37:53;101438.32;;;-0.32;70.20
43681;BME280;29281;50.356;30.894;2023-02-28T03:39:07;101433.85;;;-0.09;70.02
43681;BME280;29281;50.356;30.894;2023-02-28T03:40:15;101434.72;;;-0.06;69.56
43681;BME280;29281;50.356;30.894;2023-02-28T03:41:21;101435.53;;;0.01;69.47
43681;BME280;29281;50.356;30.894;2023-02-28T03:42:26;101435.41;;;0.28;68.82
43681;BME280;29281;50.356;30.894;2023-02-28T03:43:34;101439.70;;;0.35;68.51
43681;BME280;29281;50.356;30.894;2023-02-28T03:44:43;101444.84;;;0.46;67.30
43681;BME280;29281;50.356;30.894;2023-02-28T03:45:49;101444.12;;;0.27;67.75
43681;BME280;29281;50.356;30.894;2023-02-28T03:47:02;101446.05;;;-0.14;67.26
43681;BME280;29281;50.356;30.894;2023-02-28T03:49:24;101436.47;;;-0.11;67.32
43681;BME280;29281;50.356;30.894;2023-02-28T03:50:25;101449.58;;;-0.18;67.65
43681;BME280;29281;50.356;30.894;2023-02-28T03:51:28;101442.49;;;0.04;67.33
43681;BME280;29281;50.356;30.894;2023-02-28T03:52:34;101441.62;;;0.03;67.35
43681;BME280;29281;50.356;30.894;2023-02-28T03:53:44;101448.52;;;0.16;66.98
43681;BME280;29281;50.356;30.894;2023-02-28T03:54:50;101445.88;;;0.21;66.45
43681;BME280;29281;50.356;30.894;2023-02-28T03:55:56;101442.48;;;0.07;66.73
43681;BME280;29281;50.356;30.894;2023-02-28T03:57:02;101450.25;;;0.16;66.87
43681;BME280;29281;50.356;30.894;2023-02-28T03:59:37;101441.45;;;0.33;65.84
43681;BME280;29281;50.356;30.894;2023-02-28T04:00:38;101445.00;;;0.25;66.46
43681;BME280;29281;50.356;30.894;2023-02-28T04:01:44;101449.28;;;0.33;66.23
43681;BME280;29281;50.356;30.894;2023-02-28T04:02:54;101447.70;;;0.10;67.04
43681;BME280;29281;50.356;30.894;2023-02-28T04:03:58;101446.80;;;0.15;66.84
43681;BME280;29281;50.356;30.894;2023-02-28T04:05:02;101445.09;;;0.08;67.38
43681;BME280;29281;50.356;30.894;2023-02-28T04:06:07;101450.30;;;0.13;67.04
43681;BME280;29281;50.356;30.894;2023-02-28T04:07:11;101449.34;;;0.29;66.70
43681;BME280;29281;50.356;30.894;2023-02-28T04:08:14;101450.22;;;0.28;66.63
43681;BME280;29281;50.356;30.894;2023-02-28T04:09:18;101447.63;;;0.19;66.81
43681;BME280;29281;50.356;30.894;2023-02-28T04:10:24;101439.77;;;0.25;67.40
43681;BME280;29281;50.356;30.894;2023-02-28T04:12:33;101446.90;;;-0.05;68.09
43681;BME280;29281;50.356;30.894;2023-02-28T04:13:36;101442.57;;;-0.15;69.21
43681;BME280;29281;50.356;30.894;2023-02-28T04:14:39;101438.98;;;0.14;68.47
43681;BME280;29281;50.356;30.894;2023-02-28T04:15:44;101445.17;;;-0.12;68.78
43681;BME280;29281;50.356;30.894;2023-02-28T04:16:48;101446.03;;;-0.07;68.81
43681;BME280;29281;50.356;30.894;2023-02-28T04:17:51;101444.20;;;0.12;68.37
43681;BME280;29281;50.356;30.894;2023-02-28T04:18:56;101450.37;;;-0.01;68.32
43681;BME280;29281;50.356;30.894;2023-02-28T04:20:06;101445.95;;;0.12;68.09
43681;BME280;29281;50.356;30.894;2023-02-28T04:21:12;101443.34;;;0.10;68.14
43681;BME280;29281;50.356;30.894;2023-02-28T04:22:15;101445.03;;;0.16;67.42
43681;BME280;29281;50.356;30.894;2023-02-28T04:23:20;101450.30;;;0.13;67.77
43681;BME280;29281;50.356;30.894;2023-02-28T04:24:27;101441.43;;;0.38;68.02
43681;BME280;29281;50.356;30.894;2023-02-28T04:25:28;101447.52;;;0.39;67.97
43681;BME280;29281;50.356;30.894;2023-02-28T04:26:35;101442.37;;;0.29;67.71
43681;BME280;29281;50.356;30.894;2023-02-28T04:27:42;101446.55;;;0.55;67.34
43681;BME280;29281;50.356;30.894;2023-02-28T04:28:47;101450.83;;;0.62;67.06
43681;BME280;29281;50.356;30.894;2023-02-28T04:29:50;101446.53;;;0.56;66.97
43681;BME280;29281;50.356;30.894;2023-02-28T04:30:59;101448.30;;;0.53;66.98
43681;BME280;29281;50.356;30.894;2023-02-28T04:32:04;101449.16;;;0.53;67.31
43681;BME280;29281;50.356;30.894;2023-02-28T04:33:08;101446.73;;;0.26;67.87
43681;BME280;29281;50.356;30.894;2023-02-28T04:34:11;101445.02;;;0.19;68.19
43681;BME280;29281;50.356;30.894;2023-02-28T04:35:15;101446.66;;;0.37;67.79
43681;BME280;29281;50.356;30.894;2023-02-28T04:36:19;101444.20;;;0.12;68.56
43681;BME280;29281;50.356;30.894;2023-02-28T04:37:22;101443.34;;;0.12;68.74
43681;BME280;29281;50.356;30.894;2023-02-28T04:38:26;101442.42;;;0.16;68.73
43681;BME280;29281;50.356;30.894;2023-02-28T04:39:34;101444.20;;;0.12;68.64
43681;BME280;29281;50.356;30.894;2023-02-28T04:40:37;101440.72;;;0.15;68.72
43681;BME280;29281;50.356;30.894;2023-02-28T04:41:45;101439.00;;;0.08;68.52
43681;BME280;29281;50.356;30.894;2023-02-28T04:42:50;101445.23;;;-0.19;69.34
43681;BME280;29281;50.356;30.894;2023-02-28T04:43:53;101446.92;;;-0.15;69.83
43681;BME280;29281;50.356;30.894;2023-02-28T04:44:58;101450.37;;;-0.03;69.64
43681;BME280;29281;50.356;30.894;2023-02-28T04:46:01;101453.77;;;0.15;68.97
43681;BME280;29281;50.356;30.894;2023-02-28T04:47:05;101446.75;;;0.23;68.48
43681;BME280;29281;50.356;30.894;2023-02-28T04:48:11;101455.44;;;0.26;68.30
43681;BME280;29281;50.356;30.894;2023-02-28T04:49:15;101453.70;;;0.27;68.07
43681;BME280;29281;50.356;30.894;2023-02-28T04:50:18;101454.48;;;0.41;67.87
43681;BME280;29281;50.356;30.894;2023-02-28T04:51:25;101456.14;;;0.51;67.42
43681;BME280;29281;50.356;30.894;2023-02-28T04:52:29;101458.67;;;0.62;67.05
43681;BME280;29281;50.356;30.894;2023-02-28T04:53:32;101454.40;;;0.52;67.27
43681;BME280;29281;50.356;30.894;2023-02-28T04:54:36;101457.80;;;0.61;67.17
43681;BME280;29281;50.356;30.894;2023-02-28T04:55:42;101454.37;;;0.56;67.19
43681;BME280;29281;50.356;30.894;2023-02-28T04:56:45;101458.77;;;0.48;67.49
43681;BME280;29281;50.356;30.894;2023-02-28T04:57:50;101459.70;;;0.43;67.70
43681;BME280;29281;50.356;30.894;2023-02-28T04:58:53;101458.05;;;0.26;67.99
43681;BME280;29281;50.356;30.894;2023-02-28T04:59:59;101458.05;;;0.28;68.53
43681;BME280;29281;50.356;30.894;2023-02-28T05:01:03;101460.74;;;0.14;68.50
43681;BME280;29281;50.356;30.894;2023-02-28T05:02:07;101457.28;;;0.08;68.84
43681;BME280;29281;50.356;30.894;2023-02-28T05:03:12;101462.56;;;0.00;69.09
43681;BME280;29281;50.356;30.894;2023-02-28T05:04:15;101456.39;;;0.13;68.60
43681;BME280;29281;50.356;30.894;2023-02-28T05:05:22;101448.50;;;0.19;68.13
43681;BME280;29281;50.356;30.894;2023-02-28T05:06:26;101452.94;;;0.05;68.48
43681;BME280;29281;50.356;30.894;2023-02-28T05:07:29;101460.67;;;0.26;68.12
43681;BME280;29281;50.356;30.894;2023-02-28T05:08:32;101454.48;;;0.40;67.54
43681;BME280;29281;50.356;30.894;2023-02-28T05:09:36;101459.58;;;0.61;66.84
43681;BME280;29281;50.356;30.894;2023-02-28T05:10:39;101450.11;;;0.45;67.14
43681;BME280;29281;50.356;30.894;2023-02-28T05:11:43;101456.12;;;0.56;67.06
43681;BME280;29281;50.356;30.894;2023-02-28T05:12:47;101459.55;;;0.62;67.36
43681;BME280;29281;50.356;30.894;2023-02-28T05:13:50;101463.20;;;0.40;67.46
43681;BME280;29281;50.356;30.894;2023-02-28T05:14:55;101455.44;;;0.28;67.66
43681;BME280;29281;50.356;30.894;2023-02-28T05:16:01;101457.20;;;0.23;67.94
43681;BME280;29281;50.356;30.894;2023-02-28T05:17:05;101456.23;;;0.39;67.79
43681;BME280;29281;50.356;30.894;2023-02-28T05:18:08;101456.24;;;0.36;67.52
43681;BME280;29281;50.356;30.894;2023-02-28T05:19:14;101456.26;;;0.33;67.54
43681;BME280;29281;50.356;30.894;2023-02-28T05:20:18;101452.84;;;0.25;68.09
43681;BME280;29281;50.356;30.894;2023-02-28T05:22:28;101457.19;;;0.26;68.04
43681;BME280;29281;50.356;30.894;2023-02-28T05:23:32;101448.41;;;0.36;68.04
43681;BME280;29281;50.356;30.894;2023-02-28T05:24:36;101456.33;;;0.24;67.78
43681;BME280;29281;50.356;30.894;2023-02-28T05:25:41;101452.86;;;0.19;68.36
43681;BME280;29281;50.356;30.894;2023-02-28T05:26:45;101454.65;;;0.14;68.36
43681;BME280;29281;50.356;30.894;2023-02-28T05:27:53;101457.27;;;0.11;68.50
43681;BME280;29281;50.356;30.894;2023-02-28T05:28:59;101453.80;;;0.09;69.34
43681;BME280;29281;50.356;30.894;2023-02-28T05:30:04;101460.66;;;0.28;68.35
43681;BME280;29281;50.356;30.894;2023-02-28T05:31:10;101456.22;;;0.41;68.13
43681;BME280;29281;50.356;30.894;2023-02-28T05:32:14;101463.98;;;0.51;67.69
43681;BME280;29281;50.356;30.894;2023-02-28T05:33:20;101461.34;;;0.57;67.42
43681;BME280;29281;50.356;30.894;2023-02-28T05:34:23;101463.22;;;0.34;67.42
43681;BME280;29281;50.356;30.894;2023-02-28T05:35:27;101462.41;;;0.26;68.07
43681;BME280;29281;50.356;30.894;2023-02-28T05:36:31;101465.03;;;0.23;68.30
43681;BME280;29281;50.356;30.894;2023-02-28T05:37:36;101456.20;;;0.45;68.47
43681;BME280;29281;50.356;30.894;2023-02-28T05:38:38;101460.47;;;0.58;67.58
43681;BME280;29281;50.356;30.894;2023-02-28T05:39:42;101458.78;;;0.47;67.55
43681;BME280;29281;50.356;30.894;2023-02-28T05:40:44;101464.87;;;0.49;67.34
43681;BME280;29281;50.356;30.894;2023-02-28T05:41:49;101463.98;;;0.51;67.45
43681;BME280;29281;50.356;30.894;2023-02-28T05:42:52;101467.56;;;0.38;67.57
43681;BME280;29281;50.356;30.894;2023-02-28T05:43:57;101467.48;;;0.50;67.55
43681;BME280;29281;50.356;30.894;2023-02-28T05:45:00;101467.38;;;0.62;67.26
43681;BME280;29281;50.356;30.894;2023-02-28T05:46:05;101471.67;;;0.76;66.96
43681;BME280;29281;50.356;30.894;2023-02-28T05:47:10;101467.36;;;0.68;67.40
43681;BME280;29281;50.356;30.894;2023-02-28T05:48:14;101465.70;;;0.57;67.21
43681;BME280;29281;50.356;30.894;2023-02-28T05:49:18;101470.98;;;0.46;67.86
43681;BME280;29281;50.356;30.894;2023-02-28T05:50:20;101470.95;;;0.51;67.83
43681;BME280;29281;50.356;30.894;2023-02-28T05:51:25;101467.46;;;0.53;67.70
43681;BME280;29281;50.356;30.894;2023-02-28T05:52:29;101475.39;;;0.40;67.69
43681;BME280;29281;50.356;30.894;2023-02-28T05:53:38;101467.45;;;0.55;67.58
43681;BME280;29281;50.356;30.894;2023-02-28T05:54:41;101472.55;;;0.76;67.03
43681;BME280;29281;50.356;30.894;2023-02-28T05:55:45;101476.03;;;0.75;66.87
43681;BME280;29281;50.356;30.894;2023-02-28T05:56:48;101473.25;;;0.93;66.30
43681;BME280;29281;50.356;30.894;2023-02-28T05:57:51;101478.41;;;1.04;65.93
43681;BME280;29281;50.356;30.894;2023-02-28T05:58:54;101477.73;;;0.78;66.40
43681;BME280;29281;50.356;30.894;2023-02-28T05:59:58;101476.92;;;0.73;66.62
43681;BME280;29281;50.356;30.894;2023-02-28T06:01:18;101470.05;;;0.59;66.74
43681;BME280;29281;50.356;30.894;2023-02-28T06:02:06;101477.90;;;0.58;67.00
43681;BME280;29281;50.356;30.894;2023-02-28T06:03:10;101482.09;;;0.77;66.86
43681;BME280;29281;50.356;30.894;2023-02-28T06:04:17;101484.55;;;1.00;66.41
43681;BME280;29281;50.356;30.894;2023-02-28T06:05:25;101487.39;;;0.69;66.34
43681;BME280;29281;50.356;30.894;2023-02-28T06:06:31;101483.99;;;0.58;66.83
43681;BME280;29281;50.356;30.894;2023-02-28T06:07:38;101483.05;;;0.65;66.99
43681;BME280;29281;50.356;30.894;2023-02-28T06:08:41;101479.56;;;0.68;66.85
43681;BME280;29281;50.356;30.894;2023-02-28T06:09:45;101486.72;;;0.40;67.50
43681;BME280;29281;50.356;30.894;2023-02-28T06:10:52;101490.20;;;0.41;67.57
43681;BME280;29281;50.356;30.894;2023-02-28T06:11:57;101484.04;;;0.48;67.78
43681;BME280;29281;50.356;30.894;2023-02-28T06:13:06;101487.51;;;0.51;67.88
43681;BME280;29281;50.356;30.894;2023-02-28T06:14:07;101480.45;;;0.62;67.66